Time;durP1;ratioP1;P1;durP2;ratioP2;P2;SDS_P1;SDS_P2;PMS_P1;PMS_P2;Temp;Humidity;BMP_temperature;BMP_pressure;BME280_temperature;BME280_humidity;BME280_pressure;Samples;Min_cycle;Max_cycle;Signal;HPM_P1;HPM_P2
2023/05/29 00:00:52;;;;;;;13.00;5.20;;;12.50;99.90;;;;;;4961260;29;20510;-85
2023/05/29 00:03:22;;;;;;;17.87;5.40;;;12.40;99.90;;;;;;4960386;29;20462;-87
2023/05/29 00:05:50;;;;;;;13.43;4.90;;;12.40;99.90;;;;;;4955171;29;20470;-87
2023/05/29 00:08:21;;;;;;;11.90;5.10;;;12.40;99.90;;;;;;4955048;29;20443;-84
2023/05/29 00:10:50;;;;;;;16.80;5.97;;;12.30;99.90;;;;;;4955296;29;20505;-84
2023/05/29 00:13:18;;;;;;;12.70;4.40;;;12.30;99.90;;;;;;4955026;29;20443;-85
2023/05/29 00:15:47;;;;;;;13.50;5.47;;;12.30;99.90;;;;;;4954903;29;20840;-85
2023/05/29 00:18:16;;;;;;;13.57;4.78;;;12.20;99.90;;;;;;4955358;28;20821;-84
2023/05/29 00:20:45;;;;;;;11.37;3.77;;;12.30;99.90;;;;;;4955378;29;20195;-84
2023/05/29 00:23:14;;;;;;;13.53;5.20;;;12.30;99.90;;;;;;4955070;29;20454;-84
2023/05/29 00:25:42;;;;;;;14.60;4.33;;;12.30;99.90;;;;;;4954855;29;20474;-84
2023/05/29 00:28:11;;;;;;;11.73;4.73;;;12.20;99.90;;;;;;4954950;29;20462;-84
2023/05/29 00:30:40;;;;;;;12.70;4.53;;;12.20;99.90;;;;;;4954831;29;20461;-84
2023/05/29 00:33:09;;;;;;;15.57;5.07;;;12.20;99.90;;;;;;4954985;29;20971;-84
2023/05/29 00:35:37;;;;;;;17.17;5.50;;;12.10;99.90;;;;;;4954738;29;20474;-84
2023/05/29 00:38:06;;;;;;;12.83;4.60;;;12.10;99.90;;;;;;4956398;29;20470;-84
2023/05/29 00:40:35;;;;;;;12.63;4.50;;;12.10;99.90;;;;;;4954906;29;20455;-83
2023/05/29 00:43:03;;;;;;;14.13;4.80;;;12.00;99.90;;;;;;4956036;29;20530;-86
2023/05/29 00:45:36;;;;;;;14.20;4.10;;;12.00;99.90;;;;;;4955026;29;20478;-87
2023/05/29 00:48:08;;;;;;;14.27;4.60;;;12.00;99.90;;;;;;4956934;29;20453;-87
2023/05/29 00:50:36;;;;;;;9.77;3.80;;;12.00;99.90;;;;;;4955737;28;20449;-86
2023/05/29 00:53:07;;;;;;;10.10;4.33;;;11.90;99.90;;;;;;4954506;29;20451;-86
2023/05/29 00:55:36;;;;;;;11.33;4.50;;;11.90;99.90;;;;;;4954691;29;20470;-86
2023/05/29 00:58:06;;;;;;;11.43;4.40;;;11.90;99.90;;;;;;4954692;29;20467;-86
2023/05/29 01:00:35;;;;;;;13.43;5.10;;;11.80;99.90;;;;;;4955672;29;20881;-86
2023/05/29 01:03:05;;;;;;;13.30;4.37;;;11.80;99.90;;;;;;4955166;29;20545;-85
2023/05/29 01:05:35;;;;;;;14.27;4.87;;;11.80;99.90;;;;;;4954908;29;20476;-87
2023/05/29 01:08:06;;;;;;;14.97;4.40;;;11.70;99.90;;;;;;4954887;28;20624;-86
2023/05/29 01:10:34;;;;;;;13.63;4.80;;;11.60;99.90;;;;;;4958530;29;21064;-86
2023/05/29 01:13:07;;;;;;;13.53;4.10;;;11.70;99.90;;;;;;4958542;29;20450;-86
2023/05/29 01:15:46;;;;;;;11.60;4.13;;;11.60;99.90;;;;;;4958144;28;20477;-86
2023/05/29 01:18:27;;;;;;;12.10;4.67;;;11.60;99.90;;;;;;4958637;29;20470;-86
2023/05/29 01:21:01;;;;;;;12.97;4.83;;;11.60;99.90;;;;;;4958439;29;20550;-87
2023/05/29 01:24:11;;;;;;;14.90;4.93;;;11.60;99.90;;;;;;4958469;29;20528;-86
2023/05/29 01:26:53;;;;;;;13.80;4.00;;;11.50;99.90;;;;;;4914287;28;20481;-86
2023/05/29 01:29:25;;;;;;;13.23;5.07;;;11.50;99.90;;;;;;4959607;29;20439;-86
2023/05/29 01:31:55;;;;;;;14.03;4.80;;;11.40;99.90;;;;;;4961113;29;20426;-86
2023/05/29 01:34:23;;;;;;;11.87;4.00;;;11.50;99.90;;;;;;4960644;29;20458;-86
2023/05/29 01:36:51;;;;;;;12.10;5.00;;;11.40;99.90;;;;;;4960108;29;20872;-86
2023/05/29 01:39:21;;;;;;;17.87;5.30;;;11.40;99.90;;;;;;4961792;29;20471;-85
2023/05/29 01:41:51;;;;;;;10.47;4.37;;;11.40;99.90;;;;;;4959321;29;20502;-86
2023/05/29 01:44:21;;;;;;;13.33;4.57;;;11.40;99.90;;;;;;4960220;29;20490;-85
2023/05/29 01:46:50;;;;;;;16.67;4.20;;;11.30;99.90;;;;;;4961448;29;20580;-87
2023/05/29 01:49:19;;;;;;;14.53;5.20;;;11.20;99.90;;;;;;4959516;29;20449;-86
2023/05/29 01:51:49;;;;;;;13.20;4.80;;;11.30;99.90;;;;;;4959426;29;20888;-85
2023/05/29 01:54:17;;;;;;;13.90;4.73;;;11.20;99.90;;;;;;4957771;29;20610;-87
2023/05/29 01:56:51;;;;;;;13.03;4.10;;;11.20;99.90;;;;;;4957671;29;20470;-87
2023/05/29 01:59:21;;;;;;;15.70;4.30;;;11.20;99.90;;;;;;4957933;29;20896;-87
2023/05/29 02:01:49;;;;;;;15.60;4.60;;;11.10;99.90;;;;;;4958849;29;20494;-87
2023/05/29 02:04:17;;;;;;;14.20;4.57;;;11.10;99.90;;;;;;4957509;29;20450;-87
2023/05/29 02:06:46;;;;;;;12.47;4.33;;;11.10;99.90;;;;;;4957481;29;20470;-87
2023/05/29 02:09:14;;;;;;;12.93;4.03;;;11.10;99.90;;;;;;4957259;29;20462;-87
2023/05/29 02:11:45;;;;;;;13.97;4.20;;;11.10;99.90;;;;;;4957275;29;20447;-88
2023/05/29 02:14:18;;;;;;;14.07;4.90;;;11.00;99.90;;;;;;4957502;29;20472;-88
2023/05/29 02:16:46;;;;;;;11.43;4.53;;;10.90;99.90;;;;;;4957200;29;20470;-87
2023/05/29 02:19:16;;;;;;;16.53;4.27;;;11.00;99.90;;;;;;4956933;28;20540;-87
2023/05/29 02:21:47;;;;;;;13.23;4.43;;;11.00;99.90;;;;;;4956633;29;20454;-87
2023/05/29 02:24:16;;;;;;;12.93;4.40;;;10.90;99.90;;;;;;4957261;29;20510;-88
2023/05/29 02:26:44;;;;;;;15.23;4.90;;;10.90;99.90;;;;;;4956878;29;20998;-88
2023/05/29 02:29:12;;;;;;;15.50;4.67;;;10.90;99.90;;;;;;4956975;29;20451;-88
2023/05/29 02:31:42;;;;;;;13.50;4.60;;;10.90;99.90;;;;;;4958166;29;20533;-88
2023/05/29 02:34:10;;;;;;;13.57;4.40;;;10.90;99.90;;;;;;4956915;29;20948;-88
2023/05/29 02:36:43;;;;;;;13.57;4.83;;;10.80;99.90;;;;;;4956972;29;20565;-88
2023/05/29 02:39:12;;;;;;;13.80;4.90;;;11.00;99.90;;;;;;4957963;29;20501;-88
2023/05/29 02:41:42;;;;;;;9.20;2.70;;;10.80;99.90;;;;;;4958204;29;20439;-88
2023/05/29 02:44:11;;;;;;;16.47;4.30;;;10.80;99.90;;;;;;4956864;29;20493;-87
2023/05/29 02:46:40;;;;;;;13.90;4.50;;;10.80;99.90;;;;;;4955674;29;20485;-88
2023/05/29 02:49:10;;;;;;;21.27;5.63;;;10.90;99.90;;;;;;4956489;29;20214;-88
2023/05/29 02:51:39;;;;;;;15.37;4.33;;;10.90;99.90;;;;;;4956634;29;20860;-87
2023/05/29 02:54:07;;;;;;;12.63;5.03;;;10.80;99.90;;;;;;4956552;29;20814;-88
2023/05/29 02:56:35;;;;;;;15.07;4.80;;;10.80;99.90;;;;;;4956395;29;20577;-88
2023/05/29 02:59:06;;;;;;;13.73;4.40;;;10.70;99.90;;;;;;4956387;29;20470;-88
2023/05/29 03:01:34;;;;;;;14.80;4.90;;;10.70;99.90;;;;;;4956414;29;20450;-88
2023/05/29 03:04:04;;;;;;;14.20;4.80;;;10.70;99.90;;;;;;4956389;29;20462;-88
2023/05/29 03:06:34;;;;;;;14.50;4.80;;;10.70;99.90;;;;;;4956476;29;21031;-87
2023/05/29 03:09:02;;;;;;;15.57;4.90;;;10.70;99.90;;;;;;4956431;29;20459;-88
2023/05/29 03:11:32;;;;;;;12.77;4.57;;;10.50;99.90;;;;;;4956343;29;20451;-88
2023/05/29 03:14:01;;;;;;;12.40;4.20;;;10.60;99.90;;;;;;4956137;29;20450;-88
2023/05/29 03:16:31;;;;;;;12.73;4.47;;;10.60;99.90;;;;;;4955925;29;20466;-88
2023/05/29 03:19:00;;;;;;;18.00;4.43;;;10.60;99.90;;;;;;4955723;29;20470;-88
2023/05/29 03:21:29;;;;;;;14.13;4.03;;;10.60;99.90;;;;;;4956191;29;20474;-88
2023/05/29 03:23:58;;;;;;;20.60;4.87;;;10.60;99.90;;;;;;4956198;29;20494;-87
2023/05/29 03:26:27;;;;;;;15.10;4.97;;;10.60;99.90;;;;;;4955980;29;20474;-86
2023/05/29 03:28:55;;;;;;;12.70;4.40;;;10.60;99.90;;;;;;4955852;29;20447;-86
2023/05/29 03:31:23;;;;;;;12.27;4.27;;;10.60;99.90;;;;;;4955507;28;20793;-86
2023/05/29 03:33:52;;;;;;;13.50;4.73;;;10.50;99.90;;;;;;4955455;29;20505;-86
2023/05/29 03:36:39;;;;;;;16.97;4.90;;;10.60;99.90;;;;;;4955682;29;20477;-86
2023/05/29 03:39:09;;;;;;;12.07;3.90;;;10.60;99.90;;;;;;4955509;29;20474;-86
2023/05/29 03:41:38;;;;;;;11.37;4.17;;;10.60;99.90;;;;;;4955477;29;20455;-86
2023/05/29 03:44:06;;;;;;;17.03;4.50;;;10.60;99.90;;;;;;4955683;29;20528;-86
2023/05/29 03:46:35;;;;;;;14.30;4.50;;;10.60;99.90;;;;;;4955369;29;20470;-87
2023/05/29 03:49:07;;;;;;;13.63;4.30;;;10.50;99.90;;;;;;4955613;28;21062;-86
2023/05/29 03:51:36;;;;;;;15.20;4.40;;;10.50;99.90;;;;;;4955409;29;20819;-86
2023/05/29 03:54:05;;;;;;;15.23;4.20;;;10.50;99.90;;;;;;4955503;29;20833;-86
2023/05/29 03:56:35;;;;;;;9.97;4.17;;;10.50;99.90;;;;;;4955309;29;20481;-86
2023/05/29 03:59:05;;;;;;;11.17;3.30;;;10.50;99.90;;;;;;4955127;28;20944;-86
2023/05/29 04:01:34;;;;;;;13.37;4.10;;;10.50;99.90;;;;;;4955294;29;20474;-86
2023/05/29 04:04:02;;;;;;;13.10;4.50;;;10.50;99.90;;;;;;4955260;29;20545;-87
2023/05/29 04:06:31;;;;;;;11.70;4.23;;;10.50;99.90;;;;;;4955178;29;20991;-87
2023/05/29 04:09:00;;;;;;;17.33;5.00;;;10.50;99.90;;;;;;4955330;29;20462;-87
2023/05/29 04:11:29;;;;;;;11.60;4.30;;;10.50;99.90;;;;;;4955194;29;20454;-87
2023/05/29 04:13:59;;;;;;;10.90;3.87;;;10.50;99.90;;;;;;4956526;28;20451;-87
2023/05/29 04:16:28;;;;;;;13.67;4.90;;;10.50;99.90;;;;;;4955018;29;20552;-86
2023/05/29 04:18:57;;;;;;;11.10;4.03;;;10.50;99.90;;;;;;4955126;29;20462;-87
2023/05/29 04:21:28;;;;;;;11.90;4.10;;;10.50;99.90;;;;;;4955032;29;20478;-87
2023/05/29 04:24:00;;;;;;;12.40;4.00;;;10.50;99.90;;;;;;4954831;29;20474;-87
2023/05/29 04:26:29;;;;;;;15.00;4.47;;;10.50;99.90;;;;;;4954939;29;20477;-87
2023/05/29 04:28:59;;;;;;;12.50;4.13;;;10.50;99.90;;;;;;4954903;28;20458;-86
2023/05/29 04:31:28;;;;;;;15.07;5.20;;;10.50;99.90;;;;;;4954780;29;20470;-87
2023/05/29 04:33:56;;;;;;;13.67;4.23;;;10.50;99.90;;;;;;4955092;29;21076;-87
2023/05/29 04:36:26;;;;;;;15.60;4.53;;;10.50;99.90;;;;;;4954725;29;20533;-87
2023/05/29 04:39:06;;;;;;;12.97;4.30;;;10.50;99.90;;;;;;4954975;29;20504;-87
2023/05/29 04:41:35;;;;;;;13.30;4.10;;;10.50;99.90;;;;;;4954433;29;20470;-86
2023/05/29 04:44:07;;;;;;;14.13;4.20;;;10.50;99.90;;;;;;4954004;28;20521;-86
2023/05/29 04:46:44;;;;;;;16.90;4.53;;;10.50;99.90;;;;;;4954276;29;20497;-87
2023/05/29 04:49:14;;;;;;;16.13;4.47;;;10.50;99.90;;;;;;4954451;29;20495;-87
2023/05/29 04:51:46;;;;;;;13.87;4.70;;;10.50;99.90;;;;;;4954485;29;20450;-88
2023/05/29 04:54:16;;;;;;;17.13;4.77;;;10.60;99.90;;;;;;4954573;29;20451;-88
2023/05/29 04:56:45;;;;;;;17.43;6.40;;;10.60;99.90;;;;;;4954410;29;20463;-88
2023/05/29 04:59:20;;;;;;;12.13;4.50;;;10.60;99.90;;;;;;4954721;29;20887;-88
2023/05/29 05:01:49;;;;;;;14.67;4.97;;;10.60;99.90;;;;;;4954480;29;20445;-88
2023/05/29 05:04:21;;;;;;;14.87;4.60;;;10.70;99.90;;;;;;4954383;29;20513;-88
2023/05/29 05:06:49;;;;;;;16.80;4.40;;;10.70;99.90;;;;;;4954487;29;20471;-88
2023/05/29 05:09:18;;;;;;;13.93;5.07;;;10.70;99.90;;;;;;4954626;29;20454;-87
2023/05/29 05:11:46;;;;;;;12.20;4.37;;;10.70;99.90;;;;;;4954550;29;20982;-86
2023/05/29 05:14:16;;;;;;;14.50;4.60;;;10.80;99.90;;;;;;4955625;29;20451;-87
2023/05/29 05:16:47;;;;;;;14.53;4.80;;;10.80;99.90;;;;;;4955213;29;20467;-87
2023/05/29 05:19:18;;;;;;;11.60;4.00;;;10.80;99.90;;;;;;4955001;29;20579;-87
2023/05/29 05:21:47;;;;;;;13.23;4.00;;;10.90;99.90;;;;;;4954688;29;20550;-87
2023/05/29 05:24:18;;;;;;;14.40;4.60;;;10.90;99.90;;;;;;4954707;29;20443;-87
2023/05/29 05:26:48;;;;;;;11.73;4.40;;;10.90;99.90;;;;;;4954762;29;20481;-88
2023/05/29 05:29:18;;;;;;;12.80;4.40;;;11.00;99.90;;;;;;4954685;29;20478;-87
2023/05/29 05:31:46;;;;;;;15.00;4.90;;;11.00;99.90;;;;;;4954487;29;20445;-87
2023/05/29 05:34:17;;;;;;;17.60;5.17;;;11.00;99.90;;;;;;4954533;29;20450;-87
2023/05/29 05:36:45;;;;;;;15.40;6.10;;;11.10;99.90;;;;;;4954955;29;20478;-86
2023/05/29 05:39:15;;;;;;;12.57;4.50;;;11.20;99.90;;;;;;4954773;29;20463;-87
2023/05/29 05:41:49;;;;;;;16.60;4.93;;;11.20;99.90;;;;;;4954424;29;20463;-87
2023/05/29 05:44:39;;;;;;;15.63;5.17;;;11.40;99.90;;;;;;4954645;28;20458;-86
2023/05/29 05:47:12;;;;;;;10.90;4.03;;;11.50;99.90;;;;;;4954945;29;20482;-87
2023/05/29 05:49:40;;;;;;;16.50;4.70;;;11.60;99.90;;;;;;4954973;29;20454;-87
2023/05/29 05:52:09;;;;;;;10.80;3.40;;;11.70;99.90;;;;;;4955172;29;20458;-87
2023/05/29 05:54:37;;;;;;;14.27;4.93;;;11.80;99.90;;;;;;4956028;28;20461;-86
2023/05/29 05:57:07;;;;;;;15.30;4.83;;;12.00;99.90;;;;;;4958482;29;20474;-88
2023/05/29 05:59:39;;;;;;;13.63;4.77;;;12.20;99.90;;;;;;4959160;29;20505;-86
2023/05/29 06:02:08;;;;;;;14.47;5.10;;;12.30;99.90;;;;;;4958744;29;20481;-87
2023/05/29 06:04:37;;;;;;;17.07;5.00;;;12.50;99.90;;;;;;4958388;29;20499;-87
2023/05/29 06:07:06;;;;;;;19.03;5.47;;;12.60;99.90;;;;;;4958198;29;20481;-87
2023/05/29 06:09:36;;;;;;;17.90;4.33;;;12.80;99.90;;;;;;4958813;29;20509;-85
2023/05/29 06:12:05;;;;;;;11.53;4.53;;;13.00;99.90;;;;;;4959034;29;20454;-85
2023/05/29 06:14:33;;;;;;;15.37;5.20;;;13.20;99.90;;;;;;4958977;29;20910;-85
2023/05/29 06:17:03;;;;;;;12.70;4.30;;;13.30;99.90;;;;;;4958694;29;20528;-84
2023/05/29 06:19:31;;;;;;;11.33;4.10;;;13.50;99.90;;;;;;4958482;29;20450;-85
2023/05/29 06:22:02;;;;;;;23.17;6.17;;;13.60;99.90;;;;;;4959304;29;20467;-85
2023/05/29 06:24:33;;;;;;;18.93;5.50;;;13.70;99.90;;;;;;4960782;29;20856;-85
2023/05/29 06:27:02;;;;;;;13.30;3.93;;;13.80;99.90;;;;;;4961102;29;20881;-84
2023/05/29 06:29:32;;;;;;;19.77;4.70;;;13.90;99.90;;;;;;4959806;29;20456;-85
2023/05/29 06:32:00;;;;;;;19.10;4.53;;;13.90;99.90;;;;;;4959694;29;20498;-87
2023/05/29 06:34:29;;;;;;;13.60;5.00;;;14.00;99.90;;;;;;4957637;29;20509;-86
2023/05/29 06:36:58;;;;;;;16.23;4.30;;;14.20;99.90;;;;;;4957852;29;20996;-86
2023/05/29 06:39:26;;;;;;;13.10;4.10;;;14.30;99.90;;;;;;4957554;29;20478;-85
2023/05/29 06:41:56;;;;;;;15.07;5.00;;;14.40;99.90;;;;;;4957318;29;20478;-85
2023/05/29 06:44:24;;;;;;;14.40;4.60;;;14.50;99.90;;;;;;4960868;29;20443;-84
2023/05/29 06:46:55;;;;;;;9.40;3.80;;;14.60;99.90;;;;;;4962653;29;20550;-84
2023/05/29 06:49:23;;;;;;;15.03;5.17;;;14.70;99.90;;;;;;4959883;29;20506;-85
2023/05/29 06:51:54;;;;;;;10.07;3.73;;;14.70;99.90;;;;;;4961823;29;20458;-87
2023/05/29 06:54:38;;;;;;;10.67;4.10;;;14.80;99.90;;;;;;4960235;28;20461;-86
2023/05/29 06:57:06;;;;;;;11.30;3.60;;;14.90;99.90;;;;;;4963169;29;20485;-84
2023/05/29 06:59:39;;;;;;;10.60;3.83;;;15.00;99.90;;;;;;4961766;29;20418;-85
2023/05/29 07:02:09;;;;;;;13.13;3.77;;;15.00;99.90;;;;;;4959898;28;20462;-85
2023/05/29 07:04:38;;;;;;;10.10;4.00;;;15.10;99.90;;;;;;4959704;29;20457;-83
2023/05/29 07:07:10;;;;;;;10.80;4.03;;;15.10;99.90;;;;;;4961613;28;20840;-84
2023/05/29 07:09:39;;;;;;;17.70;4.90;;;15.10;99.90;;;;;;4959943;29;20425;-84
2023/05/29 07:12:08;;;;;;;12.67;4.20;;;15.10;99.90;;;;;;4960369;29;20451;-83
2023/05/29 07:14:36;;;;;;;12.47;4.63;;;15.20;99.90;;;;;;4960602;29;20436;-82
2023/05/29 07:17:05;;;;;;;11.50;4.80;;;15.30;99.90;;;;;;4960473;29;20453;-81
2023/05/29 07:19:34;;;;;;;10.00;3.70;;;15.40;99.90;;;;;;4959876;29;20510;-83
2023/05/29 07:22:05;;;;;;;16.77;5.43;;;15.50;99.90;;;;;;4959799;29;20504;-83
2023/05/29 07:24:35;;;;;;;15.40;4.33;;;15.60;99.90;;;;;;4959193;29;20476;-83
2023/05/29 07:27:06;;;;;;;20.00;5.40;;;15.60;99.80;;;;;;4959988;29;20478;-83
2023/05/29 07:29:35;;;;;;;14.30;4.60;;;15.60;99.70;;;;;;4960738;29;20835;-82
2023/05/29 07:32:03;;;;;;;13.83;4.97;;;15.70;99.60;;;;;;4959198;29;20429;-82
2023/05/29 07:34:32;;;;;;;16.27;5.40;;;15.70;99.50;;;;;;4960609;29;20530;-86
2023/05/29 07:37:04;;;;;;;15.10;5.63;;;15.70;99.40;;;;;;4960358;29;20884;-84
2023/05/29 07:39:37;;;;;;;13.73;5.00;;;15.80;99.40;;;;;;4961313;29;20806;-83
2023/05/29 07:42:15;;;;;;;13.53;4.37;;;15.80;99.30;;;;;;4960461;29;20988;-83
2023/05/29 07:44:44;;;;;;;16.47;4.93;;;15.90;99.50;;;;;;4959231;29;20437;-82
2023/05/29 07:47:12;;;;;;;13.30;4.87;;;16.00;99.60;;;;;;4959134;29;20464;-83
2023/05/29 07:49:45;;;;;;;12.37;4.77;;;16.10;99.60;;;;;;4958691;29;20429;-85
2023/05/29 07:52:15;;;;;;;12.70;4.30;;;16.20;99.50;;;;;;4958421;29;20455;-83
2023/05/29 07:54:45;;;;;;;17.77;5.77;;;16.20;99.40;;;;;;4959286;29;20459;-80
2023/05/29 07:57:14;;;;;;;12.10;5.40;;;16.20;99.30;;;;;;4961350;29;20525;-82
2023/05/29 07:59:44;;;;;;;14.47;4.20;;;16.10;99.30;;;;;;4959021;29;20522;-85
2023/05/29 08:02:13;;;;;;;12.27;4.20;;;16.10;99.10;;;;;;4958176;28;20486;-81
2023/05/29 08:04:55;;;;;;;12.63;4.53;;;16.10;99.10;;;;;;4958897;29;20456;-83
2023/05/29 08:07:26;;;;;;;14.80;5.67;;;16.10;99.20;;;;;;4957942;29;20449;-82
2023/05/29 08:09:56;;;;;;;15.10;5.40;;;16.10;99.20;;;;;;4958849;29;20445;-82
2023/05/29 08:12:25;;;;;;;14.90;4.97;;;16.10;99.10;;;;;;4958141;29;20496;-84
2023/05/29 08:14:56;;;;;;;18.03;5.07;;;16.20;99.10;;;;;;4959262;29;20476;-82
2023/05/29 08:17:24;;;;;;;16.07;5.50;;;16.20;98.90;;;;;;4959397;28;20463;-84
2023/05/29 08:19:52;;;;;;;15.27;4.93;;;16.30;98.90;;;;;;4957569;29;20519;-84
2023/05/29 08:22:22;;;;;;;11.80;5.63;;;16.30;98.70;;;;;;4957432;29;20553;-85
2023/05/29 08:24:50;;;;;;;13.80;4.40;;;16.30;98.60;;;;;;4958524;29;20413;-83
2023/05/29 08:27:19;;;;;;;15.60;4.90;;;16.30;98.60;;;;;;4957604;29;21045;-85
2023/05/29 08:29:48;;;;;;;13.97;4.60;;;16.30;98.50;;;;;;4957294;29;20446;-85
2023/05/29 08:32:16;;;;;;;13.57;4.70;;;16.20;98.20;;;;;;4958623;29;20478;-84
2023/05/29 08:34:45;;;;;;;14.33;4.80;;;16.20;98.20;;;;;;4957338;29;20450;-85
2023/05/29 08:37:14;;;;;;;13.07;4.43;;;16.20;98.10;;;;;;4957671;29;20469;-86
2023/05/29 08:39:45;;;;;;;11.50;4.80;;;16.30;98.10;;;;;;4956483;29;20443;-83
2023/05/29 08:42:15;;;;;;;12.90;4.23;;;16.30;98.10;;;;;;4958788;29;20449;-82
2023/05/29 08:44:48;;;;;;;13.23;4.13;;;16.30;97.80;;;;;;4960191;29;20421;-80
2023/05/29 08:47:20;;;;;;;12.87;4.90;;;16.30;97.70;;;;;;4959403;29;20485;-82
2023/05/29 08:49:53;;;;;;;18.17;5.30;;;16.30;97.70;;;;;;4958711;29;20433;-86
2023/05/29 08:52:24;;;;;;;13.20;4.43;;;16.40;97.70;;;;;;4959127;29;20454;-84
2023/05/29 08:54:56;;;;;;;14.03;5.07;;;16.40;97.60;;;;;;4959196;29;20884;-84
2023/05/29 08:57:26;;;;;;;16.60;5.20;;;16.40;97.60;;;;;;4957309;29;20462;-85
2023/05/29 08:59:56;;;;;;;17.37;4.93;;;16.40;97.60;;;;;;4957414;29;20430;-84
2023/05/29 09:02:27;;;;;;;14.30;4.47;;;16.50;97.60;;;;;;4958721;29;20494;-82
2023/05/29 09:04:56;;;;;;;15.70;5.00;;;16.50;97.40;;;;;;4958411;29;20468;-83
2023/05/29 09:07:25;;;;;;;16.67;5.00;;;16.50;97.30;;;;;;4957777;29;20445;-83
2023/05/29 09:09:54;;;;;;;14.53;4.17;;;16.50;97.20;;;;;;4957901;29;20451;-84
2023/05/29 09:12:22;;;;;;;10.10;3.97;;;16.50;97.20;;;;;;4957564;29;20550;-85
2023/05/29 09:14:52;;;;;;;17.40;4.80;;;16.50;97.00;;;;;;4957497;29;20480;-84
2023/05/29 09:17:22;;;;;;;14.83;5.40;;;16.50;97.00;;;;;;4957832;28;20469;-84
2023/05/29 09:19:51;;;;;;;13.27;5.10;;;16.60;97.10;;;;;;4957621;29;20837;-85
2023/05/29 09:22:21;;;;;;;15.00;5.57;;;16.60;97.10;;;;;;4956308;29;20469;-85
2023/05/29 09:24:50;;;;;;;13.73;4.83;;;16.60;96.90;;;;;;4956948;28;20454;-86
2023/05/29 09:27:20;;;;;;;12.80;4.40;;;16.70;96.90;;;;;;4956573;29;20521;-88
2023/05/29 09:29:48;;;;;;;13.37;4.50;;;16.70;96.90;;;;;;4958525;28;20464;-84
2023/05/29 09:32:17;;;;;;;15.67;4.97;;;16.70;96.70;;;;;;4961071;29;20474;-85
2023/05/29 09:34:47;;;;;;;11.73;4.57;;;16.80;96.70;;;;;;4960881;29;20462;-84
2023/05/29 09:37:17;;;;;;;14.00;5.23;;;16.80;96.60;;;;;;4960925;29;20449;-86
2023/05/29 09:39:47;;;;;;;14.73;4.60;;;16.90;96.60;;;;;;4961648;29;20470;-84
2023/05/29 09:42:16;;;;;;;13.03;5.00;;;16.90;96.50;;;;;;4963099;28;20543;-84
2023/05/29 09:44:51;;;;;;;14.00;5.33;;;17.00;96.60;;;;;;4963576;29;20444;-85
2023/05/29 09:47:20;;;;;;;15.43;4.60;;;17.00;96.50;;;;;;4961986;29;20485;-85
2023/05/29 09:49:50;;;;;;;14.23;4.70;;;17.10;96.50;;;;;;4960154;29;20491;-85
2023/05/29 09:52:22;;;;;;;13.27;4.70;;;17.10;96.50;;;;;;4959689;29;20458;-86
2023/05/29 09:54:52;;;;;;;10.83;5.10;;;17.20;96.60;;;;;;4959385;29;20450;-87
2023/05/29 09:57:23;;;;;;;16.63;4.83;;;17.20;96.70;;;;;;4959004;29;20457;-84
2023/05/29 09:59:53;;;;;;;14.37;4.70;;;17.30;96.80;;;;;;4959453;29;20495;-86
2023/05/29 10:02:22;;;;;;;13.77;4.40;;;17.30;96.60;;;;;;4961000;29;20511;-84
2023/05/29 10:04:51;;;;;;;16.00;5.10;;;17.40;96.60;;;;;;4960384;29;20447;-85
2023/05/29 10:07:26;;;;;;;11.70;4.60;;;17.40;96.60;;;;;;4959222;29;20496;-84
2023/05/29 10:10:04;;;;;;;13.60;4.57;;;17.50;96.30;;;;;;4961558;29;20258;-84
2023/05/29 10:12:36;;;;;;;15.63;5.00;;;17.60;96.40;;;;;;4961290;29;20432;-87
2023/05/29 10:15:08;;;;;;;13.37;4.23;;;17.60;96.30;;;;;;4960544;29;20445;-84
2023/05/29 10:17:39;;;;;;;12.03;3.93;;;17.60;96.60;;;;;;4959479;29;20457;-85
2023/05/29 10:20:15;;;;;;;15.03;4.60;;;17.60;96.30;;;;;;4959684;29;20417;-86
2023/05/29 10:22:48;;;;;;;17.77;4.63;;;17.60;96.10;;;;;;4960775;29;20549;-86
2023/05/29 10:25:21;;;;;;;12.50;4.50;;;17.50;96.10;;;;;;4959850;29;20417;-84
2023/05/29 10:27:49;;;;;;;14.27;4.43;;;17.50;96.10;;;;;;4959424;29;20434;-86
2023/05/29 10:30:28;;;;;;;16.20;5.30;;;17.50;96.20;;;;;;4959373;29;20458;-84
2023/05/29 10:33:29;;;;;;;14.20;5.17;;;17.60;96.20;;;;;;4961718;29;20811;-86
2023/05/29 10:36:08;;;;;;;13.30;5.00;;;17.60;96.10;;;;;;4963120;29;20468;-87
2023/05/29 10:38:36;;;;;;;9.50;4.23;;;17.60;95.90;;;;;;4959787;29;20474;-87
2023/05/29 10:41:29;;;;;;;15.87;4.90;;;17.60;96.10;;;;;;4960761;28;20486;-86
2023/05/29 10:43:59;;;;;;;13.03;5.00;;;17.70;95.80;;;;;;4961584;29;20558;-84
2023/05/29 10:47:00;;;;;;;10.63;4.27;;;17.70;95.60;;;;;;4960845;29;20482;-89
2023/05/29 10:49:31;;;;;;;11.87;4.30;;;17.70;95.40;;;;;;4957411;29;20448;-87
2023/05/29 10:52:01;;;;;;;11.33;4.70;;;17.60;95.50;;;;;;4961554;29;20453;-86
2023/05/29 10:54:40;;;;;;;13.37;4.50;;;17.70;95.50;;;;;;4961188;29;20469;-84
2023/05/29 10:57:10;;;;;;;13.27;4.60;;;17.70;95.40;;;;;;4961329;29;20494;-90
2023/05/29 10:59:38;;;;;;;11.70;4.50;;;17.80;95.50;;;;;;4959434;29;20425;-86
2023/05/29 11:02:06;;;;;;;15.17;5.03;;;17.80;95.70;;;;;;4960743;29;20480;-86
2023/05/29 11:04:36;;;;;;;12.60;4.33;;;17.90;95.60;;;;;;4961036;29;21083;-85
2023/05/29 11:07:08;;;;;;;13.70;4.93;;;18.00;95.70;;;;;;4960125;29;20975;-82
2023/05/29 11:09:39;;;;;;;9.97;3.93;;;18.00;95.70;;;;;;4959053;29;20422;-87
2023/05/29 11:12:23;;;;;;;13.13;4.30;;;18.10;95.50;;;;;;4957717;29;20425;-87
2023/05/29 11:15:04;;;;;;;11.83;4.33;;;18.00;95.40;;;;;;4957671;29;20461;-85
2023/05/29 11:17:43;;;;;;;13.23;5.10;;;18.00;95.50;;;;;;4958389;29;20478;-88
2023/05/29 11:20:26;;;;;;;14.63;4.40;;;18.00;95.50;;;;;;4956326;29;20446;-88
2023/05/29 11:23:08;;;;;;;11.83;4.10;;;18.10;95.50;;;;;;4956830;29;20446;-89
2023/05/29 11:25:38;;;;;;;12.00;4.70;;;18.10;95.40;;;;;;4955931;29;20474;-87
2023/05/29 11:28:10;;;;;;;12.37;4.40;;;18.20;95.30;;;;;;4957964;28;20442;-89
2023/05/29 11:30:43;;;;;;;8.43;3.43;;;18.20;95.30;;;;;;4955799;29;21010;-88
2023/05/29 11:33:27;;;;;;;11.83;4.27;;;18.10;94.90;;;;;;4956418;29;20461;-88
2023/05/29 11:36:01;;;;;;;13.47;3.77;;;18.10;94.70;;;;;;4956731;29;20474;-86
2023/05/29 11:38:32;;;;;;;10.63;4.40;;;18.10;94.80;;;;;;4956405;29;20461;-88
2023/05/29 11:41:03;;;;;;;7.90;3.70;;;18.10;94.70;;;;;;4957079;29;20421;-85
2023/05/29 11:43:32;;;;;;;11.60;5.20;;;18.20;94.50;;;;;;4957166;29;20466;-85
2023/05/29 11:46:00;;;;;;;10.30;4.17;;;18.20;94.50;;;;;;4956443;29;20809;-85
2023/05/29 11:48:28;;;;;;;14.30;4.47;;;18.20;94.40;;;;;;4957031;29;20513;-87
2023/05/29 11:50:56;;;;;;;12.97;3.70;;;18.20;94.30;;;;;;4957246;29;20462;-86
2023/05/29 11:53:27;;;;;;;13.80;4.30;;;18.20;94.40;;;;;;4958674;28;20811;-84
2023/05/29 11:56:07;;;;;;;12.97;4.00;;;18.20;94.50;;;;;;4959295;29;20465;-88
2023/05/29 11:58:36;;;;;;;15.30;4.37;;;18.30;94.60;;;;;;4956549;29;21007;-85
2023/05/29 12:01:05;;;;;;;16.90;5.10;;;18.30;94.60;;;;;;4957108;29;20871;-86
2023/05/29 12:03:39;;;;;;;19.37;4.10;;;18.30;94.60;;;;;;4957061;29;20482;-87
2023/05/29 12:06:10;;;;;;;13.03;4.50;;;18.30;94.70;;;;;;4957291;29;20522;-84
2023/05/29 12:08:39;;;;;;;16.27;4.23;;;18.40;94.60;;;;;;4958246;29;20931;-87
2023/05/29 12:11:09;;;;;;;12.80;4.50;;;18.40;94.70;;;;;;4956726;29;20458;-87
2023/05/29 12:13:38;;;;;;;13.30;3.93;;;18.40;94.70;;;;;;4956217;29;20510;-86
2023/05/29 12:16:08;;;;;;;11.77;4.33;;;18.40;94.70;;;;;;4957097;29;20470;-87
2023/05/29 12:18:36;;;;;;;11.70;3.27;;;18.40;94.70;;;;;;4956832;29;20465;-84
2023/05/29 12:21:05;;;;;;;13.13;5.03;;;18.40;94.60;;;;;;4958702;29;20446;-87
2023/05/29 12:23:34;;;;;;;16.60;4.90;;;18.50;94.60;;;;;;4959984;29;20502;-83
2023/05/29 12:26:04;;;;;;;11.50;4.40;;;18.50;94.50;;;;;;4960985;29;20474;-83
2023/05/29 12:28:35;;;;;;;10.87;3.87;;;18.50;94.50;;;;;;4961160;29;20440;-85
2023/05/29 12:31:04;;;;;;;10.80;3.53;;;18.50;94.40;;;;;;4960598;29;20418;-82
2023/05/29 12:33:33;;;;;;;10.67;4.00;;;18.50;94.30;;;;;;4960502;29;20450;-81
2023/05/29 12:36:10;;;;;;;16.97;4.90;;;18.50;94.30;;;;;;4960044;29;20474;-82
2023/05/29 12:38:48;;;;;;;13.00;4.20;;;18.50;94.10;;;;;;4958871;29;20492;-84
2023/05/29 12:41:26;;;;;;;13.43;4.53;;;18.50;94.20;;;;;;4956625;29;20458;-87
2023/05/29 12:43:57;;;;;;;10.73;3.67;;;18.50;94.00;;;;;;4958047;29;20469;-88
2023/05/29 12:46:26;;;;;;;12.40;3.67;;;18.50;93.90;;;;;;4956822;29;20529;-85
2023/05/29 12:48:56;;;;;;;10.07;4.43;;;18.60;93.90;;;;;;4961740;29;20548;-83
2023/05/29 12:51:25;;;;;;;12.50;4.50;;;18.60;93.90;;;;;;4977934;28;20438;-86
2023/05/29 12:53:54;;;;;;;14.10;5.13;;;18.60;94.00;;;;;;4977616;28;20450;-87
2023/05/29 12:56:23;;;;;;;10.97;4.10;;;18.60;93.90;;;;;;4978395;28;20459;-84